Time;durP1;ratioP1;P1;durP2;ratioP2;P2;SDS_P1;SDS_P2;PMS_P1;PMS_P2;Temp;Humidity;BMP_temperature;BMP_pressure;BME280_temperature;BME280_humidity;BME280_pressure;Samples;Min_cycle;Max_cycle;Signal;HPM_P1;HPM_P2
2023/04/28 00:00:13;;;;;;;45.20;28.63;;;;;;;10.03;100.00;98407.28;5064652;28;20054;-78
2023/04/28 00:02:57;;;;;;;47.20;30.08;;;;;;;10.13;100.00;98409.47;5061667;28;20446;-78
2023/04/28 00:05:41;;;;;;;45.88;29.80;;;;;;;10.12;100.00;98408.66;5061773;28;20098;-78
2023/04/28 00:08:26;;;;;;;41.05;27.63;;;;;;;10.17;100.00;98394.13;5060701;28;20074;-78
2023/04/28 00:11:10;;;;;;;48.85;30.10;;;;;;;10.04;100.00;98390.53;5064379;28;20550;-78
2023/04/28 00:13:54;;;;;;;47.15;29.25;;;;;;;10.04;100.00;98382.69;5061952;28;20402;-78
2023/04/28 00:16:39;;;;;;;47.47;29.58;;;;;;;10.14;100.00;98380.41;5066951;28;20150;-76
2023/04/28 00:19:22;;;;;;;45.65;29.00;;;;;;;10.10;100.00;98378.41;5065541;28;20071;-77
2023/04/28 00:22:07;;;;;;;48.10;30.17;;;;;;;10.15;100.00;98371.53;5066104;28;20544;-77
2023/04/28 00:24:51;;;;;;;43.67;28.42;;;;;;;10.18;100.00;98372.94;5059874;28;20127;-77
2023/04/28 00:27:36;;;;;;;48.08;28.60;;;;;;;10.30;100.00;98375.69;5063120;28;20532;-76
2023/04/28 00:30:20;;;;;;;44.47;28.63;;;;;;;10.23;100.00;98370.47;5056717;28;20390;-74
2023/04/28 00:33:04;;;;;;;41.83;26.40;;;;;;;10.39;100.00;98373.66;5059891;28;20047;-75
2023/04/28 00:35:48;;;;;;;42.17;26.15;;;;;;;10.41;100.00;98372.44;5061809;28;20044;-75
2023/04/28 00:38:32;;;;;;;40.05;26.40;;;;;;;10.47;100.00;98364.75;5057030;28;20399;-75
2023/04/28 00:41:16;;;;;;;42.55;27.27;;;;;;;10.39;100.00;98366.56;5061785;28;20044;-75
2023/04/28 00:44:00;;;;;;;40.53;25.00;;;;;;;10.45;100.00;98358.91;5062105;28;20543;-75
2023/04/28 00:46:45;;;;;;;36.45;24.20;;;;;;;10.25;100.00;98351.94;5054482;28;20564;-75
2023/04/28 00:49:29;;;;;;;37.88;24.92;;;;;;;10.26;100.00;98350.91;5063063;28;20048;-75
2023/04/28 00:52:14;;;;;;;39.17;24.75;;;;;;;10.31;100.00;98353.69;5058746;28;20048;-76
2023/04/28 00:54:58;;;;;;;35.20;24.10;;;;;;;10.24;100.00;98345.06;5057186;28;20048;-75
2023/04/28 00:57:42;;;;;;;35.38;23.75;;;;;;;10.27;100.00;98347.28;5058706;28;20124;-75
2023/04/28 01:00:26;;;;;;;39.30;24.73;;;;;;;10.25;100.00;98346.69;5061910;28;20098;-75
2023/04/28 01:03:10;;;;;;;36.97;23.15;;;;;;;10.28;100.00;98351.50;5056984;28;20040;-75
2023/04/28 01:05:54;;;;;;;36.38;22.98;;;;;;;10.37;100.00;98342.38;5055587;28;20038;-75
2023/04/28 01:08:38;;;;;;;36.35;24.67;;;;;;;10.39;100.00;98339.53;5062043;28;20126;-74
2023/04/28 01:11:22;;;;;;;36.08;23.92;;;;;;;10.36;100.00;98348.63;5061625;28;20048;-75
2023/04/28 01:14:06;;;;;;;37.05;23.35;;;;;;;10.34;100.00;98337.53;5060644;28;20086;-77
2023/04/28 01:16:50;;;;;;;34.78;22.92;;;;;;;10.42;100.00;98337.34;5059033;28;20030;-75
2023/04/28 01:19:34;;;;;;;38.50;25.10;;;;;;;10.33;100.00;98328.06;5059645;28;20095;-75
2023/04/28 01:22:18;;;;;;;37.25;23.77;;;;;;;10.47;100.00;98330.66;5057550;28;20086;-76
2023/04/28 01:25:03;;;;;;;35.80;23.70;;;;;;;10.47;100.00;98325.41;5057948;28;20055;-76
2023/04/28 01:27:47;;;;;;;35.35;23.55;;;;;;;10.52;100.00;98328.19;5062075;28;20399;-76
2023/04/28 01:30:31;;;;;;;35.47;23.70;;;;;;;10.50;100.00;98322.34;5059495;28;20039;-75
2023/04/28 01:33:15;;;;;;;38.78;23.58;;;;;;;10.52;100.00;98322.94;5057073;28;20090;-75
2023/04/28 01:35:59;;;;;;;32.50;22.33;;;;;;;10.50;100.00;98309.22;5058657;28;20082;-76
2023/04/28 01:38:43;;;;;;;35.08;22.63;;;;;;;10.54;100.00;98310.41;5062313;28;20136;-76
2023/04/28 01:41:27;;;;;;;29.20;20.88;;;;;;;10.39;100.00;98311.47;5058330;28;20422;-75
2023/04/28 01:44:12;;;;;;;31.73;21.55;;;;;;;10.41;100.00;98316.56;5058616;28;20564;-76
2023/04/28 01:46:55;;;;;;;32.75;21.50;;;;;;;10.38;100.00;98314.31;5060486;28;20048;-76
2023/04/28 01:49:39;;;;;;;30.38;20.58;;;;;;;10.51;100.00;98310.84;5062897;28;20049;-76
2023/04/28 01:52:23;;;;;;;34.35;22.17;;;;;;;10.55;100.00;98304.97;5063873;28;20097;-76
2023/04/28 01:55:08;;;;;;;33.47;21.73;;;;;;;10.54;100.00;98294.66;5057290;28;20090;-76
2023/04/28 01:57:51;;;;;;;30.13;21.10;;;;;;;10.61;100.00;98298.06;5055496;28;20043;-76
2023/04/28 02:00:35;;;;;;;34.35;22.30;;;;;;;10.62;100.00;98294.44;5060169;28;20116;-76
2023/04/28 02:03:20;;;;;;;31.00;20.90;;;;;;;10.57;100.00;98304.72;5060562;28;20071;-76
2023/04/28 02:06:04;;;;;;;32.63;21.90;;;;;;;10.62;100.00;98304.94;5061428;28;20486;-76
2023/04/28 02:08:48;;;;;;;32.22;21.30;;;;;;;10.64;100.00;98302.88;5060575;28;20451;-76
2023/04/28 02:11:32;;;;;;;33.53;21.83;;;;;;;10.61;100.00;98302.50;5055471;28;20089;-75
2023/04/28 02:14:16;;;;;;;33.80;22.75;;;;;;;10.57;100.00;98300.31;5058402;28;20090;-76
2023/04/28 02:17:02;;;;;;;32.72;21.50;;;;;;;10.48;100.00;98290.28;5060762;28;20086;-75
2023/04/28 02:19:46;;;;;;;32.65;22.67;;;;;;;10.48;100.00;98290.28;5061189;28;20044;-77
2023/04/28 02:22:30;;;;;;;35.88;23.20;;;;;;;10.52;100.00;98296.69;5062107;28;20099;-76
2023/04/28 02:25:14;;;;;;;38.50;24.00;;;;;;;10.59;100.00;98302.69;5056355;28;20101;-76
2023/04/28 02:27:58;;;;;;;36.75;23.42;;;;;;;10.62;100.00;98298.84;5059968;28;20133;-75
2023/04/28 02:30:41;;;;;;;36.35;23.52;;;;;;;10.44;100.00;98289.88;5062772;28;20076;-76
2023/04/28 02:33:26;;;;;;;36.03;22.90;;;;;;;10.50;100.00;98288.25;5058600;28;20510;-76
2023/04/28 02:36:10;;;;;;;37.88;23.95;;;;;;;10.58;100.00;98280.09;5066797;28;20036;-76
2023/04/28 02:38:54;;;;;;;36.42;22.85;;;;;;;10.63;100.00;98287.34;5052075;28;20048;-76
2023/04/28 02:41:38;;;;;;;34.92;22.92;;;;;;;10.64;100.00;98286.31;5060791;28;20052;-75
2023/04/28 02:44:22;;;;;;;35.60;23.83;;;;;;;10.49;100.00;98279.56;5064883;28;20089;-76
2023/04/28 02:47:06;;;;;;;34.03;23.13;;;;;;;10.55;100.00;98280.53;5064698;28;20522;-76
2023/04/28 02:49:50;;;;;;;39.65;23.23;;;;;;;10.58;100.00;98280.09;5065627;28;20123;-76
2023/04/28 02:52:34;;;;;;;37.45;23.17;;;;;;;10.70;100.00;98278.41;5061814;28;20044;-75
2023/04/28 02:55:22;;;;;;;37.58;24.58;;;;;;;10.75;100.00;98282.19;5065743;28;20097;-76
2023/04/28 02:58:07;;;;;;;34.22;23.08;;;;;;;10.82;100.00;98282.97;5066407;28;20514;-75
2023/04/28 03:00:51;;;;;;;34.88;23.05;;;;;;;10.79;100.00;98283.38;5060065;28;20057;-76
2023/04/28 03:03:35;;;;;;;37.15;24.13;;;;;;;10.82;100.00;98275.88;5058160;28;20056;-76
2023/04/28 03:06:19;;;;;;;37.08;23.92;;;;;;;10.84;100.00;98270.44;5061051;28;20526;-76
2023/04/28 03:09:03;;;;;;;39.15;23.58;;;;;;;10.66;100.00;98277.22;5061533;28;20079;-75
2023/04/28 03:11:47;;;;;;;35.65;22.85;;;;;;;10.69;100.00;98279.41;5061298;28;20063;-75
2023/04/28 03:14:31;;;;;;;34.25;22.48;;;;;;;10.75;100.00;98279.56;5062665;28;20055;-75
2023/04/28 03:17:15;;;;;;;40.38;24.33;;;;;;;10.48;100.00;98269.28;5063122;28;20102;-76
2023/04/28 03:20:00;;;;;;;37.03;22.80;;;;;;;10.46;100.00;98276.56;5065175;28;20075;-75
2023/04/28 03:22:44;;;;;;;34.50;22.63;;;;;;;10.41;100.00;98270.13;5059420;28;20052;-76
2023/04/28 03:25:28;;;;;;;37.22;23.17;;;;;;;10.48;100.00;98267.44;5061098;28;20056;-76
2023/04/28 03:28:12;;;;;;;32.75;20.98;;;;;;;10.54;100.00;98274.50;5061403;28;20051;-77
2023/04/28 03:30:56;;;;;;;35.50;21.75;;;;;;;10.55;100.00;98270.84;5062075;28;20553;-76
2023/04/28 03:33:41;;;;;;;35.33;23.27;;;;;;;10.55;100.00;98270.03;5059835;28;20086;-75
2023/04/28 03:36:26;;;;;;;37.42;23.63;;;;;;;10.50;100.00;98272.50;5060443;28;20087;-75
2023/04/28 03:39:10;;;;;;;35.08;21.73;;;;;;;10.50;100.00;98264.63;5057852;28;20048;-76
2023/04/28 03:41:54;;;;;;;36.13;22.08;;;;;;;10.41;100.00;98258.84;5060522;28;20039;-75
2023/04/28 03:44:38;;;;;;;36.65;22.95;;;;;;;10.45;100.00;98251.34;5057509;28;20048;-76
2023/04/28 03:47:22;;;;;;;33.42;21.70;;;;;;;10.50;100.00;98251.50;5066205;28;20091;-75
2023/04/28 03:50:06;;;;;;;31.30;21.75;;;;;;;10.38;100.00;98249.53;5063134;28;20083;-76
2023/04/28 03:52:50;;;;;;;37.25;23.80;;;;;;;10.39;100.00;98245.88;5063345;28;20501;-76
2023/04/28 03:55:34;;;;;;;42.28;26.77;;;;;;;10.41;100.00;98243.88;5062918;28;20048;-76
2023/04/28 03:58:18;;;;;;;45.83;27.58;;;;;;;10.34;100.00;98237.84;5059526;28;20087;-76
2023/04/28 04:01:03;;;;;;;48.15;28.60;;;;;;;10.22;100.00;98229.88;5069027;28;20051;-76
2023/04/28 04:03:48;;;;;;;44.70;28.45;;;;;;;10.36;100.00;98225.31;5056400;28;20116;-76
2023/04/28 04:06:32;;;;;;;59.30;30.52;;;;;;;10.10;100.00;98226.31;5059316;28;20124;-76
2023/04/28 04:09:16;;;;;;;52.88;29.02;;;;;;;10.08;100.00;98234.41;5067967;28;20506;-76
2023/04/28 04:12:00;;;;;;;51.55;30.05;;;;;;;10.24;100.00;98245.41;5059118;28;20051;-76
2023/04/28 04:14:44;;;;;;;55.97;30.65;;;;;;;10.32;100.00;98244.31;5058115;28;20094;-76
2023/04/28 04:17:28;;;;;;;54.85;31.23;;;;;;;10.13;100.00;98239.81;5062982;28;20036;-76
2023/04/28 04:20:12;;;;;;;47.17;27.58;;;;;;;10.26;100.00;98246.00;5059953;28;20047;-76
2023/04/28 04:22:56;;;;;;;47.28;27.58;;;;;;;10.12;100.00;98246.06;5056900;28;20099;-76
2023/04/28 04:25:40;;;;;;;41.65;25.73;;;;;;;10.29;100.00;98250.81;5062471;28;20195;-77
2023/04/28 04:28:25;;;;;;;40.28;25.27;;;;;;;10.27;100.00;98251.00;5062819;28;20107;-76
2023/04/28 04:31:09;;;;;;;48.78;28.42;;;;;;;10.30;100.00;98252.41;5062582;28;20124;-76
2023/04/28 04:33:53;;;;;;;43.53;26.88;;;;;;;10.40;100.00;98252.78;5062164;28;20387;-75
2023/04/28 04:36:37;;;;;;;46.30;27.52;;;;;;;10.30;100.00;98257.66;5058840;28;20040;-76
2023/04/28 04:39:21;;;;;;;43.67;26.73;;;;;;;10.37;100.00;98258.41;5062305;28;20048;-75
2023/04/28 04:42:05;;;;;;;42.25;25.55;;;;;;;10.50;100.00;98256.75;5062792;28;20093;-76
2023/04/28 04:44:49;;;;;;;44.95;25.75;;;;;;;10.54;100.00;98250.06;5063443;28;20040;-75
2023/04/28 04:47:34;;;;;;;50.45;28.10;;;;;;;10.40;100.00;98255.41;5057087;28;20063;-75
2023/04/28 04:50:18;;;;;;;42.80;25.92;;;;;;;10.47;100.00;98249.31;5060209;28;20103;-77
2023/04/28 04:53:02;;;;;;;44.17;26.98;;;;;;;10.51;100.00;98250.50;5057791;28;20403;-76
2023/04/28 04:55:46;;;;;;;43.15;25.85;;;;;;;10.56;100.00;98256.72;5061380;28;20119;-76
2023/04/28 04:58:30;;;;;;;49.80;26.45;;;;;;;10.50;100.00;98252.28;5062093;28;20044;-76
2023/04/28 05:01:14;;;;;;;42.05;24.55;;;;;;;10.56;100.00;98256.72;5060045;28;20065;-76
2023/04/28 05:03:58;;;;;;;46.65;25.90;;;;;;;10.53;100.00;98261.56;5061014;28;20047;-76
2023/04/28 05:06:43;;;;;;;52.08;28.92;;;;;;;10.67;100.00;98268.34;5061860;28;20062;-75
2023/04/28 05:09:28;;;;;;;48.13;28.30;;;;;;;10.68;100.00;98264.69;5060176;28;20105;-76
2023/04/28 05:12:12;;;;;;;46.08;25.98;;;;;;;10.63;100.00;98266.34;5055334;28;20047;-77
2023/04/28 05:14:56;;;;;;;52.03;28.55;;;;;;;10.44;100.00;98266.28;5053534;28;20548;-77
2023/04/28 05:17:40;;;;;;;48.08;26.80;;;;;;;10.67;100.00;98268.34;5059645;28;20090;-76
2023/04/28 05:20:24;;;;;;;46.20;25.88;;;;;;;10.59;100.00;98276.47;5062635;28;20093;-76
2023/04/28 05:23:09;;;;;;;49.50;26.83;;;;;;;10.70;100.00;98273.16;5060234;28;20040;-76
2023/04/28 05:25:53;;;;;;;53.05;26.13;;;;;;;10.76;100.00;98266.25;5060484;28;20095;-76
2023/04/28 05:28:39;;;;;;;47.63;24.55;;;;;;;10.84;100.00;98273.06;5057585;28;20078;-77
2023/04/28 05:31:23;;;;;;;48.20;25.85;;;;;;;10.84;100.00;98279.09;5065892;28;20043;-77
2023/04/28 05:34:07;;;;;;;53.55;29.02;;;;;;;10.80;100.00;98287.59;5059173;28;20067;-76
2023/04/28 05:36:51;;;;;;;52.80;27.73;;;;;;;10.71;100.00;98287.09;5064405;28;20516;-75
2023/04/28 05:39:36;;;;;;;54.92;29.23;;;;;;;10.74;100.00;98285.84;5063578;28;20410;-77
2023/04/28 05:42:20;;;;;;;52.30;27.65;;;;;;;10.71;100.00;98301.00;5061547;28;20043;-78
2023/04/28 05:45:05;;;;;;;53.67;28.65;;;;;;;10.85;100.00;98295.66;5057569;28;20401;-77
2023/04/28 05:47:49;;;;;;;51.80;28.30;;;;;;;11.00;100.00;98301.41;5059684;28;20497;-77
2023/04/28 05:50:33;;;;;;;53.55;28.65;;;;;;;10.88;100.00;98300.47;5057466;28;20494;-77
2023/04/28 05:53:17;;;;;;;57.05;28.13;;;;;;;10.84;100.00;98304.56;5064115;28;20048;-77
2023/04/28 05:56:02;;;;;;;56.78;27.92;;;;;;;10.71;100.00;98305.47;5059333;28;20052;-78
2023/04/28 05:58:48;;;;;;;84.63;31.08;;;;;;;10.61;100.00;98299.88;5058039;28;20052;-78
2023/04/28 06:01:32;;;;;;;106.15;32.30;;;;;;;10.37;100.00;98300.38;5063010;28;20451;-78
2023/04/28 06:04:16;;;;;;;167.52;37.40;;;;;;;10.18;100.00;98296.06;5055049;28;20572;-77
2023/04/28 06:07:00;;;;;;;119.85;32.42;;;;;;;10.26;100.00;98290.59;5057360;28;20052;-77
2023/04/28 06:09:44;;;;;;;70.57;33.47;;;;;;;10.56;100.00;98292.63;5055580;28;20458;-77
2023/04/28 06:12:28;;;;;;;134.07;39.72;;;;;;;10.65;100.00;98291.38;5062516;28;20067;-77
2023/04/28 06:15:12;;;;;;;65.78;35.42;;;;;;;10.81;100.00;98284.78;5054460;28;20044;-77
2023/04/28 06:17:57;;;;;;;63.92;33.30;;;;;;;10.98;100.00;98295.53;5059393;28;20545;-76
2023/04/28 06:20:41;;;;;;;61.92;31.77;;;;;;;11.08;100.00;98304.75;5055530;28;20055;-80
2023/04/28 06:23:25;;;;;;;71.20;32.97;;;;;;;10.84;100.00;98304.56;5061446;28;20143;-80
2023/04/28 06:26:09;;;;;;;96.57;32.42;;;;;;;10.55;100.00;98306.78;5058692;28;20578;-81
2023/04/28 06:28:54;;;;;;;62.20;29.30;;;;;;;10.78;100.00;98303.59;5060483;28;20052;-80
2023/04/28 06:31:38;;;;;;;53.03;27.05;;;;;;;10.54;100.00;98305.97;5056388;28;20043;-83
2023/04/28 06:34:27;;;;;;;57.28;28.40;;;;;;;10.59;100.00;98315.03;5055439;28;20513;-80
2023/04/28 06:37:11;;;;;;;60.58;29.02;;;;;;;10.78;100.00;98315.88;5062602;28;20036;-80
2023/04/28 06:39:55;;;;;;;67.05;27.40;;;;;;;10.63;100.00;98319.66;5058166;28;20090;-81
2023/04/28 06:42:40;;;;;;;55.63;27.92;;;;;;;10.86;100.00;98320.91;5063705;28;20565;-83
2023/04/28 06:45:24;;;;;;;61.38;27.75;;;;;;;10.59;100.00;98318.44;5060651;28;20052;-79
2023/04/28 06:48:09;;;;;;;54.65;26.35;;;;;;;10.76;100.00;98325.81;5056727;28;20051;-81
2023/04/28 06:50:53;;;;;;;71.40;26.42;;;;;;;10.64;100.00;98326.50;5060628;28;20043;-82
2023/04/28 06:53:37;;;;;;;60.28;26.42;;;;;;;10.85;100.00;98309.56;5059639;28;20109;-79
2023/04/28 06:56:21;;;;;;;61.35;25.85;;;;;;;11.06;100.00;98322.56;5057308;28;20071;-79
2023/04/28 06:59:06;;;;;;;56.88;24.50;;;;;;;10.74;100.00;98325.22;5057336;28;20058;-78
2023/04/28 07:01:50;;;;;;;56.33;24.38;;;;;;;10.65;100.00;98319.41;5052326;28;20055;-78
2023/04/28 07:04:35;;;;;;;48.85;21.92;;;;;;;10.43;100.00;98331.06;5058922;28;20083;-78
2023/04/28 07:07:19;;;;;;;51.78;24.45;;;;;;;10.73;100.00;98326.25;5053479;28;20098;-76
2023/04/28 07:10:04;;;;;;;57.92;25.02;;;;;;;10.84;100.00;98328.97;5056169;28;20502;-76
2023/04/28 07:12:51;;;;;;;48.63;23.17;;;;;;;10.80;100.00;98324.34;5058980;28;20119;-77
2023/04/28 07:15:35;;;;;;;49.20;22.92;;;;;;;10.95;100.00;98327.47;5063083;28;20082;-75
2023/04/28 07:18:20;;;;;;;44.38;22.98;;;;;;;11.09;100.00;98335.25;5049636;28;20402;-76
2023/04/28 07:21:04;;;;;;;50.83;25.15;;;;;;;11.31;100.00;98340.13;5052434;28;20098;-76
2023/04/28 07:23:48;;;;;;;51.25;24.77;;;;;;;11.27;100.00;98342.34;5056042;28;20040;-75
2023/04/28 07:26:32;;;;;;;51.33;24.70;;;;;;;11.38;100.00;98348.72;5053830;28;20098;-76
2023/04/28 07:29:17;;;;;;;54.63;24.88;;;;;;;11.31;100.00;98350.63;5056920;28;20090;-76
2023/04/28 07:32:07;;;;;;;46.25;24.60;;;;;;;11.28;100.00;98362.34;5056598;28;20079;-80
2023/04/28 07:34:51;;;;;;;42.42;23.02;;;;;;;11.08;100.00;98365.16;5059969;28;20091;-80
2023/04/28 07:37:36;;;;;;;44.55;22.65;;;;;;;11.18;100.00;98367.31;5062759;28;20397;-77
2023/04/28 07:40:20;;;;;;;43.75;22.58;;;;;;;11.33;100.00;98375.66;5060472;28;20174;-77
2023/04/28 07:43:04;;;;;;;41.72;21.30;;;;;;;11.43;100.00;98375.19;5062981;28;20103;-77
2023/04/28 07:45:48;;;;;;;41.60;22.27;;;;;;;11.75;100.00;98382.94;5058252;28;20048;-77
2023/04/28 07:48:35;;;;;;;35.63;21.52;;;;;;;11.69;100.00;98382.00;5061644;28;20044;-78
2023/04/28 07:51:20;;;;;;;41.15;20.23;;;;;;;11.93;100.00;98381.34;5058929;28;20090;-77
2023/04/28 07:54:04;;;;;;;36.38;20.83;;;;;;;12.02;100.00;98385.34;5065092;28;20123;-77
2023/04/28 07:56:49;;;;;;;35.83;19.52;;;;;;;12.35;100.00;98385.94;5059478;28;20148;-77
2023/04/28 07:59:33;;;;;;;30.30;18.25;;;;;;;12.41;100.00;98391.13;5060426;28;20048;-77
2023/04/28 08:02:19;;;;;;;29.58;17.55;;;;;;;12.57;100.00;98400.22;5051600;28;20067;-77
2023/04/28 08:05:03;;;;;;;28.48;16.25;;;;;;;12.49;100.00;98381.31;5058862;28;20102;-77
2023/04/28 08:07:47;;;;;;;29.85;18.33;;;;;;;13.03;100.00;98394.50;5062170;28;20048;-77
2023/04/28 08:10:31;;;;;;;26.88;16.27;;;;;;;12.94;100.00;98407.19;5062666;28;20052;-78
2023/04/28 08:13:15;;;;;;;26.17;16.83;;;;;;;12.18;100.00;98409.41;5060821;28;20044;-78
2023/04/28 08:15:59;;;;;;;27.45;16.38;;;;;;;12.65;100.00;98411.47;5055666;28;20082;-77
2023/04/28 08:18:44;;;;;;;26.35;16.50;;;;;;;13.02;100.00;98410.56;5053696;28;20048;-77
2023/04/28 08:21:28;;;;;;;26.75;15.70;;;;;;;12.68;100.00;98411.81;5062931;28;20039;-77
2023/04/28 08:24:13;;;;;;;27.60;16.20;;;;;;;12.89;100.00;98420.25;5061041;28;20501;-77
2023/04/28 08:26:57;;;;;;;24.05;15.43;;;;;;;12.68;100.00;98425.00;5059789;28;20552;-77
2023/04/28 08:29:41;;;;;;;24.27;15.38;;;;;;;12.92;100.00;98432.19;5060325;28;20051;-77
2023/04/28 08:32:25;;;;;;;24.13;15.60;;;;;;;12.61;100.00;98437.47;5065208;28;20102;-80
2023/04/28 08:35:10;;;;;;;22.83;14.50;;;;;;;12.61;100.00;98441.91;5058163;28;20047;-76
2023/04/28 08:37:54;;;;;;;26.35;15.70;;;;;;;12.60;100.00;98435.84;5063896;28;20043;-76
2023/04/28 08:40:39;;;;;;;26.13;15.65;;;;;;;12.48;100.00;98448.16;5063595;28;20039;-76
2023/04/28 08:43:24;;;;;;;28.50;16.67;;;;;;;12.62;100.00;98446.97;5060887;28;20044;-76
2023/04/28 08:46:09;;;;;;;27.05;15.88;;;;;;;12.64;100.00;98452.81;5063179;28;20083;-76
2023/04/28 08:48:59;;;;;;;31.55;17.90;;;;;;;12.46;100.00;98452.81;5062793;28;20430;-76
2023/04/28 08:51:57;;;;;;;34.28;18.25;;;;;;;12.64;100.00;98462.50;5059608;28;20044;-76
2023/04/28 08:54:43;;;;;;;30.23;17.67;;;;;;;12.77;100.00;98466.81;5063106;28;20052;-77
2023/04/28 08:57:32;;;;;;;31.55;17.67;;;;;;;12.93;100.00;98463.56;5059735;28;20044;-76
2023/04/28 09:00:16;;;;;;;31.67;17.98;;;;;;;12.95;100.00;98458.84;5059279;28;20097;-77
2023/04/28 09:03:01;;;;;;;30.85;18.60;;;;;;;13.12;100.00;98463.50;5061835;28;20534;-77
2023/04/28 09:05:45;;;;;;;26.48;16.35;;;;;;;12.27;100.00;98468.63;5063014;28;20547;-77
2023/04/28 09:08:29;;;;;;;25.30;15.10;;;;;;;12.79;100.00;98477.94;5060376;28;20127;-77
2023/04/28 09:11:13;;;;;;;26.65;15.75;;;;;;;12.83;100.00;98476.47;5057859;28;20044;-77
2023/04/28 09:14:14;;;;;;;27.20;16.27;;;;;;;13.08;100.00;98483.41;5060512;28;20094;-76
2023/04/28 09:16:58;;;;;;;26.50;15.70;;;;;;;13.27;100.00;98482.31;5061711;28;20497;-77
2023/04/28 09:19:42;;;;;;;24.27;15.73;;;;;;;13.11;100.00;98480.31;5062521;28;20128;-76
2023/04/28 09:22:29;;;;;;;18.60;12.75;;;;;;;12.54;100.00;98481.47;5060549;28;20505;-77
2023/04/28 09:25:13;;;;;;;21.80;12.82;;;;;;;13.14;100.00;98483.31;5051882;28;20402;-77
2023/04/28 09:27:57;;;;;;;21.00;13.13;;;;;;;12.82;100.00;98496.72;5062537;28;20048;-77
2023/04/28 09:30:41;;;;;;;20.40;13.02;;;;;;;13.68;100.00;98492.28;5055562;28;20118;-76
2023/04/28 09:33:26;;;;;;;20.55;13.55;;;;;;;14.16;100.00;98493.06;5061471;28;20043;-77
2023/04/28 09:36:10;;;;;;;17.17;11.68;;;;;;;14.16;100.00;98497.56;5056951;28;20095;-75
2023/04/28 09:38:57;;;;;;;20.27;12.88;;;;;;;13.97;100.00;98495.84;5059220;28;20115;-75
2023/04/28 09:41:42;;;;;;;16.58;11.40;;;;;;;14.02;100.00;98505.72;5057742;28;20043;-75
2023/04/28 09:44:26;;;;;;;18.02;11.82;;;;;;;14.54;100.00;98510.22;5052613;28;20149;-75
2023/04/28 09:47:22;;;;;;;18.63;12.10;;;;;;;14.61;100.00;98504.00;5056795;28;20666;-76
2023/04/28 09:50:10;;;;;;;17.13;11.35;;;;;;;14.40;100.00;98511.50;5056909;28;20124;-77
2023/04/28 09:52:56;;;;;;;20.88;13.10;;;;;;;15.20;100.00;98508.28;5051405;28;20047;-75
2023/04/28 09:55:43;;;;;;;16.88;11.55;;;;;;;15.54;100.00;98510.97;5053190;28;20043;-76
2023/04/28 09:58:28;;;;;;;18.02;11.63;;;;;;;15.28;100.00;98515.84;5052049;28;20043;-75
2023/04/28 10:01:13;;;;;;;18.20;12.95;;;;;;;15.10;100.00;98516.84;5055161;28;20125;-75
2023/04/28 10:03:59;;;;;;;15.90;11.65;;;;;;;15.65;100.00;98527.81;5052162;28;20138;-75
2023/04/28 10:06:44;;;;;;;16.75;11.82;;;;;;;15.89;100.00;98522.38;5053508;28;20122;-75
2023/04/28 10:09:31;;;;;;;17.05;12.60;;;;;;;15.42;100.00;98530.34;5057907;28;20586;-75
2023/04/28 10:12:24;;;;;;;13.88;10.23;;;;;;;15.54;100.00;98530.31;5047648;28;20044;-75
2023/04/28 10:15:09;;;;;;;16.52;11.88;;;;;;;15.36;100.00;98535.81;5053478;28;20051;-75
2023/04/28 10:17:54;;;;;;;15.02;11.43;;;;;;;15.96;100.00;98536.25;5051723;28;20517;-75
2023/04/28 10:20:39;;;;;;;17.50;12.02;;;;;;;15.72;100.00;98539.03;5057579;28;20051;-77
2023/04/28 10:23:49;;;;;;;16.80;12.07;;;;;;;15.75;100.00;98554.44;5050380;28;20036;-77
2023/04/28 10:27:03;;;;;;;16.23;12.05;;;;;;;14.99;100.00;98558.13;5054595;28;20457;-79
2023/04/28 10:29:47;;;;;;;17.65;11.95;;;;;;;14.81;100.00;98567.03;5059516;28;20527;-79
2023/04/28 10:32:32;;;;;;;12.60;10.52;;;;;;;14.58;100.00;98566.03;5061925;28;20052;-78
2023/04/28 10:35:36;;;;;;;13.48;10.68;;;;;;;14.91;100.00;98563.81;5052241;28;20124;-78
2023/04/28 10:38:20;;;;;;;14.10;10.60;;;;;;;15.56;100.00;98567.91;5055766;28;20127;-78
2023/04/28 10:41:31;;;;;;;13.98;11.00;;;;;;;15.76;100.00;98574.56;5046409;28;20402;-78
2023/04/28 10:44:27;;;;;;;14.43;11.93;;;;;;;15.43;100.00;98584.06;5047148;28;20048;-79
2023/04/28 10:47:11;;;;;;;16.73;12.25;;;;;;;15.28;100.00;98577.44;5058640;28;20039;-79
2023/04/28 10:49:56;;;;;;;18.95;14.25;;;;;;;15.59;100.00;98586.97;5054409;28;20570;-79
2023/04/28 10:52:43;;;;;;;16.00;13.38;;;;;;;15.72;100.00;98591.94;5050898;28;20406;-77
2023/04/28 10:55:36;;;;;;;17.48;13.32;;;;;;;15.70;100.00;98588.72;5057165;28;20089;-78
2023/04/28 10:58:26;;;;;;;15.53;12.90;;;;;;;15.61;100.00;98598.13;5059355;28;20064;-77
2023/04/28 11:01:19;;;;;;;17.35;12.93;;;;;;;15.87;100.00;98603.81;5056452;28;20048;-81
2023/04/28 11:04:12;;;;;;;17.33;14.07;;;;;;;14.79;100.00;98596.31;5056495;28;20544;-82
2023/04/28 11:07:10;;;;;;;17.42;13.50;;;;;;;14.41;100.00;98597.59;5065608;28;20097;-83
2023/04/28 11:09:54;;;;;;;19.02;13.65;;;;;;;14.33;100.00;98609.31;5060395;28;20048;-83
2023/04/28 11:13:33;;;;;;;17.73;13.60;;;;;;;14.19;100.00;98618.50;5064595;28;20047;-83
2023/04/28 11:16:20;;;;;;;19.33;13.70;;;;;;;14.03;100.00;98610.22;5012023;28;20044;-83
2023/04/28 11:19:09;;;;;;;19.13;13.63;;;;;;;13.82;100.00;98622.94;5064426;28;20060;-82
2023/04/28 11:21:55;;;;;;;16.38;12.95;;;;;;;14.74;100.00;98605.97;5063885;28;20072;-82
2023/04/28 11:24:39;;;;;;;16.35;12.07;;;;;;;14.17;100.00;98624.00;5064554;28;20048;-82
2023/04/28 11:27:25;;;;;;;14.52;11.70;;;;;;;14.36;100.00;98622.09;5062567;28;20051;-83
2023/04/28 11:30:21;;;;;;;14.57;11.80;;;;;;;14.03;100.00;98626.06;5066641;28;20052;-83
2023/04/28 11:33:06;;;;;;;14.48;11.20;;;;;;;14.57;100.00;98638.38;5061883;28;20055;-83
2023/04/28 11:35:51;;;;;;;12.93;9.80;;;;;;;14.79;100.00;98632.53;5060094;28;20441;-83
2023/04/28 11:38:44;;;;;;;12.18;9.98;;;;;;;14.70;100.00;98640.75;5059472;28;20502;-83
2023/04/28 11:41:28;;;;;;;13.00;9.35;;;;;;;14.45;100.00;98638.38;5058870;28;20553;-82
2023/04/28 11:44:17;;;;;;;11.35;9.25;;;;;;;14.25;100.00;98644.81;5065232;28;20040;-82
2023/04/28 11:47:03;;;;;;;11.57;9.48;;;;;;;14.52;100.00;98652.28;5060735;28;20048;-84
2023/04/28 11:49:48;;;;;;;16.55;13.68;;;;;;;14.03;100.00;98663.00;5063851;28;20055;-80
2023/04/28 11:52:32;;;;;;;21.38;13.88;;;;;;;13.78;100.00;98669.25;5061938;28;20082;-82
2023/04/28 11:55:16;;;;;;;;;;;;;;;14.07;100.00;98674.72;5061795;28;20042;-82
2023/04/28 11:58:23;;;;;;;17.67;13.63;;;;;;;13.75;100.00;98672.31;5063975;28;20009;-82
2023/04/28 12:01:14;;;;;;;20.60;14.35;;;;;;;13.98;100.00;98676.09;5066390;28;20048;-82
2023/04/28 12:03:58;;;;;;;20.08;14.57;;;;;;;13.28;100.00;98680.81;5063365;28;20047;-82
2023/04/28 12:06:42;;;;;;;14.93;11.57;;;;;;;13.10;100.00;98692.16;5060639;28;20453;-80
2023/04/28 12:09:27;;;;;;;15.35;11.60;;;;;;;13.49;100.00;98692.75;5061773;28;20117;-82
2023/04/28 12:12:31;;;;;;;14.73;11.18;;;;;;;13.26;100.00;98703.94;5061641;28;20044;-82
2023/04/28 12:15:15;;;;;;;15.85;10.70;;;;;;;13.53;100.00;98708.94;5059912;28;20138;-82
2023/04/28 12:18:10;;;;;;;14.15;9.82;;;;;;;13.47;100.00;98713.25;5063942;28;20178;-81
2023/04/28 12:20:54;;;;;;;15.93;11.60;;;;;;;12.80;100.00;98729.75;5060028;28;20044;-80
2023/04/28 12:23:38;;;;;;;13.55;10.32;;;;;;;13.21;100.00;98736.25;5062093;28;20048;-80
2023/04/28 12:26:25;;;;;;;15.40;11.23;;;;;;;12.84;100.00;98733.56;5062116;28;20070;-82
2023/04/28 12:29:29;;;;;;;14.00;9.82;;;;;;;12.46;100.00;98732.63;5068376;28;20035;-83
2023/04/28 12:32:14;;;;;;;12.98;8.93;;;;;;;12.54;100.00;98740.28;5064470;28;20501;-83